Time;durP1;ratioP1;P1;durP2;ratioP2;P2;SDS_P1;SDS_P2;PMS_P1;PMS_P2;Temp;Humidity;BMP_temperature;BMP_pressure;BME280_temperature;BME280_humidity;BME280_pressure;Samples;Min_cycle;Max_cycle;Signal;HPM_P1;HPM_P2
2023/07/12 00:01:00;;;;;;;67.77;4.90;;;25.00;1.00;;;;;;5118750;28;20414;-80
2023/07/12 00:03:27;;;;;;;68.30;5.00;;;25.20;1.00;;;;;;5100932;28;20409;-79
2023/07/12 00:05:53;;;;;;;68.83;5.20;;;25.20;1.00;;;;;;5100913;28;20396;-79
2023/07/12 00:08:23;;;;;;;68.40;4.57;;;25.30;1.00;;;;;;5119004;28;20480;-80
2023/07/12 00:10:51;;;;;;;70.50;5.00;;;25.30;1.00;;;;;;5119612;28;20411;-80
2023/07/12 00:13:17;;;;;;;67.70;4.80;;;25.40;1.00;;;;;;5101602;28;20499;-80
2023/07/12 00:15:45;;;;;;;71.67;4.40;;;25.50;1.00;;;;;;5101510;28;20457;-80
2023/07/12 00:18:22;;;;;;;67.57;4.50;;;25.50;1.00;;;;;;5119799;28;20775;-79
2023/07/12 00:20:50;;;;;;;71.13;4.50;;;25.50;1.00;;;;;;5101341;28;20436;-80
2023/07/12 00:23:17;;;;;;;70.33;5.07;;;25.50;1.00;;;;;;5119455;28;20476;-80
2023/07/12 00:25:44;;;;;;;67.60;3.67;;;25.50;1.00;;;;;;5119351;28;20495;-80
2023/07/12 00:28:28;;;;;;;67.20;4.20;;;25.50;1.00;;;;;;5100579;28;20460;-80
2023/07/12 00:30:57;;;;;;;69.00;3.80;;;25.50;1.00;;;;;;5119773;28;20763;-80
2023/07/12 00:33:23;;;;;;;66.37;3.50;;;25.50;1.00;;;;;;5119219;28;20759;-80
2023/07/12 00:35:50;;;;;;;69.80;4.00;;;25.50;1.00;;;;;;5118438;28;20435;-80
2023/07/12 00:38:26;;;;;;;67.10;3.50;;;25.50;1.00;;;;;;5100626;28;20439;-80
2023/07/12 00:41:11;;;;;;;68.17;3.23;;;25.60;1.00;;;;;;5119087;28;20425;-79
2023/07/12 00:43:43;;;;;;;65.67;3.20;;;25.60;1.00;;;;;;5118565;28;20384;-80
2023/07/12 00:46:19;;;;;;;67.23;3.40;;;25.60;1.00;;;;;;5118377;28;20399;-80
2023/07/12 00:48:46;;;;;;;67.17;3.20;;;25.60;1.00;;;;;;5118658;28;20451;-80
2023/07/12 00:51:27;;;;;;;66.57;2.60;;;25.70;1.00;;;;;;5118070;28;20407;-80
2023/07/12 00:53:54;;;;;;;67.57;3.50;;;25.70;1.00;;;;;;5119082;28;20760;-80
2023/07/12 00:56:20;;;;;;;66.17;3.23;;;25.70;1.00;;;;;;5119428;28;20507;-80
2023/07/12 00:58:52;;;;;;;67.80;3.23;;;25.70;1.00;;;;;;5118985;28;20453;-80
2023/07/12 01:01:20;;;;;;;67.67;3.43;;;25.70;1.00;;;;;;5119615;28;20413;-80
2023/07/12 01:03:46;;;;;;;67.00;4.00;;;25.70;1.00;;;;;;5119425;28;20449;-80
2023/07/12 01:06:16;;;;;;;66.73;4.50;;;25.70;1.00;;;;;;5118989;28;20896;-81
2023/07/12 01:08:45;;;;;;;66.33;4.03;;;25.70;1.00;;;;;;5118752;28;20448;-81
2023/07/12 01:11:13;;;;;;;66.17;4.90;;;25.70;1.00;;;;;;5118840;28;20729;-81
2023/07/12 01:13:44;;;;;;;67.67;4.83;;;25.70;1.00;;;;;;5100902;28;20396;-81
2023/07/12 01:16:12;;;;;;;65.90;4.90;;;25.60;1.00;;;;;;5119131;28;20393;-81
2023/07/12 01:18:38;;;;;;;67.07;4.70;;;25.60;1.00;;;;;;5119409;28;20427;-81
2023/07/12 01:21:23;;;;;;;66.37;4.60;;;25.60;1.00;;;;;;5118912;28;20412;-81
2023/07/12 01:23:49;;;;;;;67.07;5.47;;;25.60;1.00;;;;;;5119348;28;20381;-80
2023/07/12 01:26:22;;;;;;;68.30;4.50;;;25.60;1.00;;;;;;5118837;28;20430;-81
2023/07/12 01:28:51;;;;;;;67.70;4.50;;;25.60;1.00;;;;;;5119295;28;20459;-81
2023/07/12 01:31:18;;;;;;;68.93;4.80;;;25.50;1.00;;;;;;5119445;28;20401;-81
2023/07/12 01:33:44;;;;;;;65.67;3.80;;;25.50;1.00;;;;;;5100897;28;20393;-82
2023/07/12 01:36:10;;;;;;;66.60;4.53;;;25.30;1.00;;;;;;5118645;28;20450;-82
2023/07/12 01:38:36;;;;;;;69.37;4.03;;;25.40;1.00;;;;;;5118937;28;20421;-82
2023/07/12 01:41:02;;;;;;;66.30;3.90;;;25.40;1.00;;;;;;5100590;28;20834;-82
2023/07/12 01:43:28;;;;;;;67.00;3.97;;;25.50;1.00;;;;;;5118401;28;20405;-82
2023/07/12 01:45:53;;;;;;;67.10;3.60;;;25.40;1.00;;;;;;5118815;28;20167;-81
2023/07/12 01:48:19;;;;;;;67.67;3.83;;;25.40;1.00;;;;;;5117965;28;20456;-81
2023/07/12 01:50:45;;;;;;;69.27;3.20;;;25.50;1.00;;;;;;5100005;28;20174;-81
2023/07/12 01:53:11;;;;;;;69.17;4.43;;;25.40;1.00;;;;;;5118522;28;20191;-81
2023/07/12 01:55:36;;;;;;;68.47;3.73;;;25.40;1.00;;;;;;5100414;28;20163;-80
2023/07/12 01:58:02;;;;;;;66.27;3.87;;;25.30;1.00;;;;;;5117984;28;20217;-81
2023/07/12 02:00:28;;;;;;;67.17;3.83;;;25.20;1.00;;;;;;5117776;28;20167;-81
2023/07/12 02:02:54;;;;;;;66.80;3.57;;;25.20;1.00;;;;;;5117811;28;20719;-81
2023/07/12 02:05:21;;;;;;;66.27;3.30;;;25.00;1.00;;;;;;5117825;28;20935;-81
2023/07/12 02:07:48;;;;;;;66.40;3.73;;;24.90;1.00;;;;;;5117885;28;20246;-82
2023/07/12 02:10:19;;;;;;;67.97;4.47;;;24.60;1.00;;;;;;5117745;28;20498;-81
2023/07/12 02:12:45;;;;;;;68.90;4.27;;;24.50;1.50;;;;;;5118335;28;20407;-82
2023/07/12 02:15:13;;;;;;;67.13;4.70;;;24.50;4.80;;;;;;5117972;28;20449;-82
2023/07/12 02:17:40;;;;;;;68.27;4.50;;;24.50;10.10;;;;;;5099922;28;20432;-81
2023/07/12 02:20:07;;;;;;;66.20;4.40;;;24.60;9.70;;;;;;5099955;28;20949;-81
2023/07/12 02:22:34;;;;;;;65.60;3.87;;;24.60;9.70;;;;;;5118331;28;20810;-81
2023/07/12 02:25:00;;;;;;;66.60;4.10;;;24.50;11.90;;;;;;5117548;28;20428;-82
2023/07/12 02:27:26;;;;;;;67.00;4.80;;;24.30;14.10;;;;;;5117524;28;20829;-82
2023/07/12 02:29:53;;;;;;;65.60;4.33;;;24.20;16.90;;;;;;5117788;28;20395;-81
2023/07/12 02:32:20;;;;;;;67.17;4.90;;;24.20;18.70;;;;;;5117782;28;20418;-82
2023/07/12 02:34:47;;;;;;;67.23;5.17;;;24.20;19.00;;;;;;5118092;28;20395;-81
2023/07/12 02:37:13;;;;;;;65.77;5.27;;;24.20;21.10;;;;;;5118417;28;20417;-82
2023/07/12 02:39:39;;;;;;;67.60;5.53;;;24.20;21.10;;;;;;5117702;28;20455;-81
2023/07/12 02:42:06;;;;;;;66.63;5.40;;;24.20;22.50;;;;;;5099148;28;20415;-81
2023/07/12 02:44:32;;;;;;;67.70;5.87;;;24.20;22.30;;;;;;5117936;28;20173;-81
2023/07/12 02:46:57;;;;;;;67.20;4.67;;;24.20;22.50;;;;;;5117812;28;20419;-81
2023/07/12 02:49:23;;;;;;;67.57;6.10;;;24.20;23.20;;;;;;5117326;28;20687;-81
2023/07/12 02:51:49;;;;;;;67.40;5.80;;;24.20;20.60;;;;;;5098968;28;20216;-81
2023/07/12 02:54:14;;;;;;;67.33;6.57;;;24.20;24.30;;;;;;5098569;28;20662;-80
2023/07/12 02:56:40;;;;;;;72.70;6.67;;;24.20;22.80;;;;;;5116990;28;20419;-81
2023/07/12 02:59:06;;;;;;;68.13;6.07;;;24.40;21.80;;;;;;5116550;28;20231;-81
2023/07/12 03:01:32;;;;;;;66.90;6.67;;;24.30;22.40;;;;;;5098511;28;20255;-80
2023/07/12 03:03:57;;;;;;;67.27;5.63;;;24.20;25.30;;;;;;5117045;28;20165;-80
2023/07/12 03:06:27;;;;;;;67.80;5.47;;;24.20;23.80;;;;;;5098335;28;20489;-80
2023/07/12 03:08:53;;;;;;;70.10;5.37;;;24.10;21.30;;;;;;5098526;28;20208;-80
2023/07/12 03:11:21;;;;;;;70.17;7.63;;;23.90;23.10;;;;;;5116468;28;20408;-81
2023/07/12 03:13:49;;;;;;;66.50;3.77;;;23.80;26.50;;;;;;5117253;28;20160;-81
2023/07/12 03:16:15;;;;;;;67.07;4.20;;;23.70;15.50;;;;;;5102522;28;20412;-80
2023/07/12 03:18:41;;;;;;;66.63;4.23;;;23.20;7.50;;;;;;5101985;28;20428;-79
2023/07/12 03:21:07;;;;;;;66.93;3.60;;;23.00;7.80;;;;;;5120167;28;20212;-80
2023/07/12 03:23:33;;;;;;;67.50;4.47;;;23.00;7.30;;;;;;5102261;28;20226;-80
2023/07/12 03:25:59;;;;;;;66.50;2.93;;;22.80;4.10;;;;;;5120606;28;20171;-81
2023/07/12 03:28:28;;;;;;;66.57;3.43;;;22.70;1.90;;;;;;5102323;28;20452;-79
2023/07/12 03:31:01;;;;;;;65.97;3.67;;;22.50;1.00;;;;;;5119831;28;20642;-79
2023/07/12 03:33:28;;;;;;;66.50;3.23;;;22.20;1.00;;;;;;5120242;28;20396;-82
2023/07/12 03:35:54;;;;;;;66.70;3.70;;;22.30;1.00;;;;;;5101685;28;20397;-81
2023/07/12 03:38:22;;;;;;;66.47;4.10;;;22.00;1.00;;;;;;5120164;28;20424;-79
2023/07/12 03:40:47;;;;;;;68.47;3.80;;;21.90;1.00;;;;;;5101123;28;20405;-80
2023/07/12 03:43:13;;;;;;;67.63;4.23;;;21.90;1.00;;;;;;5101807;28;20825;-79
2023/07/12 03:45:42;;;;;;;65.57;3.33;;;22.00;1.00;;;;;;5101743;28;20538;-82
2023/07/12 03:48:07;;;;;;;66.20;3.63;;;22.20;1.00;;;;;;5100532;28;20209;-81
2023/07/12 03:50:33;;;;;;;66.27;3.07;;;22.30;1.00;;;;;;5119928;28;20401;-81
2023/07/12 03:52:59;;;;;;;65.90;2.63;;;22.40;1.00;;;;;;5102118;28;20266;-81
2023/07/12 03:55:24;;;;;;;66.93;3.17;;;22.50;1.00;;;;;;5101228;28;20166;-81
2023/07/12 03:57:50;;;;;;;67.73;2.53;;;22.60;1.00;;;;;;5119065;28;20194;-81
2023/07/12 04:00:16;;;;;;;65.60;2.30;;;22.60;1.00;;;;;;5119461;28;20174;-81
2023/07/12 04:02:42;;;;;;;65.30;2.30;;;22.60;1.00;;;;;;5119076;28;20530;-81
2023/07/12 04:05:08;;;;;;;66.03;2.70;;;22.70;1.00;;;;;;5119122;28;20173;-81
2023/07/12 04:07:34;;;;;;;65.40;2.37;;;22.60;1.00;;;;;;5101486;28;20440;-82
2023/07/12 04:09:59;;;;;;;64.93;2.23;;;22.70;1.00;;;;;;5120953;28;20193;-82
2023/07/12 04:12:25;;;;;;;67.30;2.67;;;22.70;1.00;;;;;;5102023;28;20223;-82
2023/07/12 04:14:51;;;;;;;67.47;2.70;;;22.70;1.00;;;;;;5120772;28;20177;-83
2023/07/12 04:17:16;;;;;;;65.43;2.20;;;22.70;1.00;;;;;;5102701;28;20166;-83
2023/07/12 04:19:42;;;;;;;64.87;2.30;;;22.80;1.00;;;;;;5121140;28;20162;-83
2023/07/12 04:22:08;;;;;;;66.30;2.73;;;22.80;1.00;;;;;;5120839;28;20208;-83
2023/07/12 04:24:33;;;;;;;65.40;2.70;;;22.80;1.00;;;;;;5120298;28;20215;-83
2023/07/12 04:26:59;;;;;;;66.13;2.90;;;22.90;1.00;;;;;;5120492;28;20158;-83
2023/07/12 04:29:27;;;;;;;66.00;3.47;;;22.90;1.00;;;;;;5119930;28;20269;-83
2023/07/12 04:31:55;;;;;;;65.60;3.23;;;23.00;1.00;;;;;;5120288;28;20154;-82
2023/07/12 04:34:21;;;;;;;65.70;3.47;;;23.00;1.00;;;;;;5119296;28;20892;-82
2023/07/12 04:36:46;;;;;;;65.53;3.27;;;23.00;1.00;;;;;;5120097;28;20479;-82
2023/07/12 04:39:12;;;;;;;66.00;3.30;;;23.00;1.00;;;;;;5119376;28;20658;-82
2023/07/12 04:41:38;;;;;;;65.40;2.57;;;22.90;1.00;;;;;;5119247;28;20578;-82
2023/07/12 04:44:03;;;;;;;67.67;2.50;;;22.70;1.00;;;;;;5119476;28;20533;-83
2023/07/12 04:46:30;;;;;;;65.53;2.80;;;22.70;1.00;;;;;;5119629;28;20163;-82
2023/07/12 04:48:56;;;;;;;65.67;2.43;;;22.70;1.00;;;;;;5119043;28;20208;-82
2023/07/12 04:51:21;;;;;;;65.27;2.80;;;22.70;1.00;;;;;;5119572;28;20401;-82
2023/07/12 04:53:47;;;;;;;65.20;2.40;;;22.70;1.00;;;;;;5119726;28;20541;-82
2023/07/12 04:56:14;;;;;;;66.40;2.70;;;22.70;1.00;;;;;;5100257;28;20171;-82
2023/07/12 04:58:40;;;;;;;65.87;2.97;;;22.80;1.00;;;;;;5101462;28;20940;-82
2023/07/12 05:01:06;;;;;;;65.50;2.80;;;22.90;1.00;;;;;;5120078;28;20420;-82
2023/07/12 05:03:32;;;;;;;66.33;2.67;;;22.90;1.00;;;;;;5119246;28;20167;-83
2023/07/12 05:05:58;;;;;;;65.57;2.47;;;22.90;1.00;;;;;;5101900;28;20177;-83
2023/07/12 05:08:24;;;;;;;66.27;2.83;;;23.00;1.00;;;;;;5120493;28;20226;-83
2023/07/12 05:10:50;;;;;;;65.83;3.27;;;22.80;1.00;;;;;;5119375;28;20450;-83
2023/07/12 05:13:15;;;;;;;65.30;2.50;;;22.80;1.00;;;;;;5119362;28;20404;-82
2023/07/12 05:15:49;;;;;;;67.60;3.40;;;22.90;1.00;;;;;;5100524;28;20212;-83
2023/07/12 05:18:15;;;;;;;65.70;2.93;;;22.70;1.00;;;;;;5119516;28;20574;-83
2023/07/12 05:20:41;;;;;;;67.67;4.03;;;22.70;2.00;;;;;;5101165;28;20413;-83
2023/07/12 05:23:06;;;;;;;66.07;4.03;;;22.50;4.70;;;;;;5100909;28;20195;-83
2023/07/12 05:25:32;;;;;;;65.47;4.10;;;22.50;5.30;;;;;;5118637;28;20162;-82
2023/07/12 05:27:58;;;;;;;65.77;4.67;;;22.40;5.50;;;;;;5118077;28;20559;-81
2023/07/12 05:30:27;;;;;;;67.47;5.00;;;22.50;6.10;;;;;;5118039;28;20238;-81
2023/07/12 05:32:52;;;;;;;65.27;3.47;;;22.60;2.60;;;;;;5118431;28;20456;-81
2023/07/12 05:35:18;;;;;;;66.07;3.80;;;22.70;1.40;;;;;;5117788;28;20497;-81
2023/07/12 05:37:44;;;;;;;65.87;4.70;;;22.60;1.00;;;;;;5117185;28;20182;-81
2023/07/12 05:40:10;;;;;;;65.50;3.93;;;22.50;2.60;;;;;;5118003;28;20220;-81
2023/07/12 05:42:40;;;;;;;65.37;3.20;;;22.60;1.80;;;;;;5118122;28;20228;-81
2023/07/12 05:45:07;;;;;;;65.20;3.10;;;22.60;1.00;;;;;;5118274;28;20158;-81
2023/07/12 05:47:32;;;;;;;66.20;3.60;;;22.60;1.00;;;;;;5099077;28;20789;-80
2023/07/12 05:49:59;;;;;;;67.60;4.40;;;22.50;1.00;;;;;;5117342;28;20457;-81
2023/07/12 05:52:24;;;;;;;66.70;3.80;;;22.50;1.00;;;;;;5117579;28;20154;-81
2023/07/12 05:54:50;;;;;;;64.77;3.60;;;22.40;1.00;;;;;;5117296;28;20392;-80
2023/07/12 05:57:16;;;;;;;65.90;5.20;;;22.40;1.00;;;;;;5099023;28;20182;-81
2023/07/12 05:59:44;;;;;;;65.27;4.40;;;22.30;2.70;;;;;;5117359;28;20175;-80
2023/07/12 06:02:12;;;;;;;65.70;3.63;;;22.30;1.00;;;;;;5099087;28;20431;-80
2023/07/12 06:04:38;;;;;;;65.17;3.93;;;22.20;1.00;;;;;;5117322;28;20396;-79
2023/07/12 06:07:04;;;;;;;66.40;4.07;;;22.10;1.00;;;;;;5117406;28;20392;-80
2023/07/12 06:09:30;;;;;;;66.93;4.03;;;22.10;1.00;;;;;;5117065;28;20480;-79
2023/07/12 06:11:56;;;;;;;66.90;4.97;;;22.10;1.00;;;;;;5116079;28;20401;-80
2023/07/12 06:14:22;;;;;;;66.57;5.60;;;22.10;1.40;;;;;;5116408;28;20161;-81
2023/07/12 06:16:47;;;;;;;66.53;5.03;;;22.00;2.50;;;;;;5097601;28;20487;-81
2023/07/12 06:19:13;;;;;;;66.07;4.10;;;22.20;1.00;;;;;;5097829;28;20455;-81
2023/07/12 06:21:39;;;;;;;65.47;3.80;;;22.40;1.00;;;;;;5097941;28;20253;-81
2023/07/12 06:24:06;;;;;;;65.97;4.13;;;22.40;1.00;;;;;;5115992;28;20170;-80
2023/07/12 06:26:32;;;;;;;66.70;4.53;;;22.50;1.00;;;;;;5116664;28;20503;-80
2023/07/12 06:29:00;;;;;;;65.90;5.30;;;22.30;1.00;;;;;;5097389;28;20455;-79
2023/07/12 06:31:25;;;;;;;66.27;4.77;;;22.50;1.00;;;;;;5116541;28;20452;-81
2023/07/12 06:33:51;;;;;;;67.27;5.47;;;22.50;1.00;;;;;;5117363;28;20483;-81
2023/07/12 06:36:19;;;;;;;65.90;3.80;;;22.50;1.00;;;;;;5116226;28;20187;-81
2023/07/12 06:38:45;;;;;;;68.30;3.40;;;22.60;1.00;;;;;;5116200;28;20187;-80
2023/07/12 06:41:12;;;;;;;66.27;3.70;;;22.50;1.00;;;;;;5116724;28;20404;-81
2023/07/12 06:43:37;;;;;;;66.37;5.20;;;22.50;1.00;;;;;;5116294;28;20246;-81
2023/07/12 06:46:03;;;;;;;68.83;5.77;;;22.30;1.00;;;;;;5116625;28;20428;-81
2023/07/12 06:48:29;;;;;;;66.20;5.27;;;22.30;1.90;;;;;;5116639;28;20604;-81
2023/07/12 06:50:55;;;;;;;67.40;5.83;;;22.30;2.30;;;;;;5120617;28;20396;-81
2023/07/12 06:53:21;;;;;;;65.90;5.13;;;22.30;1.80;;;;;;5102504;28;20833;-81
2023/07/12 06:55:48;;;;;;;66.67;4.73;;;22.40;1.00;;;;;;5120706;28;20408;-81
2023/07/12 06:58:16;;;;;;;65.90;5.80;;;22.40;1.00;;;;;;5120374;28;20194;-81
2023/07/12 07:00:43;;;;;;;66.30;5.13;;;22.30;1.00;;;;;;5101991;28;20404;-80
2023/07/12 07:03:10;;;;;;;65.00;4.83;;;22.50;1.00;;;;;;5120494;28;20403;-80
2023/07/12 07:05:41;;;;;;;65.80;5.13;;;22.40;1.00;;;;;;5120655;28;20399;-81
2023/07/12 07:08:07;;;;;;;65.80;5.80;;;22.40;1.00;;;;;;5120266;28;20472;-81
2023/07/12 07:10:34;;;;;;;66.10;5.90;;;22.50;1.00;;;;;;5120797;28;20409;-81
2023/07/12 07:13:00;;;;;;;68.90;4.37;;;22.50;1.00;;;;;;5120171;28;20911;-80
2023/07/12 07:15:25;;;;;;;66.70;4.67;;;22.50;1.00;;;;;;5102764;28;20461;-80
2023/07/12 07:17:51;;;;;;;65.97;3.20;;;22.50;1.00;;;;;;5121067;28;20456;-80
2023/07/12 07:20:17;;;;;;;66.97;4.30;;;22.50;1.00;;;;;;5120638;28;20155;-80
2023/07/12 07:22:43;;;;;;;65.43;3.57;;;22.30;1.00;;;;;;5120608;28;20438;-80
2023/07/12 07:25:09;;;;;;;66.00;4.03;;;22.40;1.00;;;;;;5120093;28;20195;-80
2023/07/12 07:27:34;;;;;;;67.33;3.00;;;22.40;1.00;;;;;;5119934;28;20162;-80
2023/07/12 07:30:00;;;;;;;65.83;3.07;;;22.50;1.00;;;;;;5119264;28;20399;-80
2023/07/12 07:32:26;;;;;;;67.20;3.07;;;22.40;1.00;;;;;;5119261;28;20503;-80
2023/07/12 07:34:51;;;;;;;66.17;3.00;;;22.30;1.00;;;;;;5101218;28;20169;-80
2023/07/12 07:37:17;;;;;;;64.90;2.50;;;22.30;1.00;;;;;;5118948;28;20163;-80
2023/07/12 07:39:43;;;;;;;65.63;2.70;;;22.40;1.00;;;;;;5119646;28;20166;-81
2023/07/12 07:42:11;;;;;;;64.47;2.10;;;22.40;1.00;;;;;;5118662;28;20574;-80
2023/07/12 07:44:37;;;;;;;66.37;3.10;;;22.20;1.00;;;;;;5119447;28;20194;-79
2023/07/12 07:47:03;;;;;;;66.93;3.00;;;22.20;1.00;;;;;;5100423;28;20416;-79
2023/07/12 07:49:29;;;;;;;66.40;2.80;;;22.20;1.00;;;;;;5119101;28;20557;-79
2023/07/12 07:51:54;;;;;;;64.77;2.37;;;22.20;1.00;;;;;;5119062;28;20404;-80
2023/07/12 07:54:20;;;;;;;66.00;2.53;;;22.20;1.00;;;;;;5100622;28;20196;-79
2023/07/12 07:56:49;;;;;;;65.97;2.80;;;22.20;1.00;;;;;;5119044;28;20194;-80
2023/07/12 07:59:59;;;;;;;68.67;3.23;;;22.20;1.00;;;;;;5135939;22;20218;-80
2023/07/12 08:02:35;;;;;;;66.53;2.90;;;22.20;1.00;;;;;;5118578;28;20737;-80
2023/07/12 08:05:00;;;;;;;68.20;3.30;;;22.20;1.00;;;;;;5118548;28;20426;-78
2023/07/12 08:07:29;;;;;;;64.60;2.30;;;22.20;1.00;;;;;;5117596;28;20388;-79
2023/07/12 08:09:54;;;;;;;66.00;3.20;;;22.20;1.00;;;;;;5098304;28;20168;-79
2023/07/12 08:12:20;;;;;;;65.90;2.63;;;22.20;1.00;;;;;;5080005;28;20465;-79
2023/07/12 08:14:46;;;;;;;69.47;2.60;;;22.40;1.00;;;;;;5080061;28;20658;-80
2023/07/12 08:17:11;;;;;;;65.37;2.40;;;22.40;1.00;;;;;;5098208;28;20187;-80
2023/07/12 08:19:37;;;;;;;65.80;2.70;;;22.30;1.00;;;;;;5098008;28;20187;-81
2023/07/12 08:22:03;;;;;;;65.80;2.93;;;22.30;1.00;;;;;;5098362;28;20526;-81
2023/07/12 08:24:28;;;;;;;67.07;2.87;;;22.50;1.00;;;;;;5080049;28;20228;-81
2023/07/12 08:26:54;;;;;;;66.60;2.67;;;22.60;1.00;;;;;;5098706;28;20166;-81
2023/07/12 08:29:20;;;;;;;65.80;2.70;;;22.60;1.00;;;;;;5098452;28;20183;-80
2023/07/12 08:31:45;;;;;;;65.37;2.60;;;22.80;1.00;;;;;;5099301;28;20159;-80
2023/07/12 08:34:11;;;;;;;66.00;2.63;;;22.90;1.00;;;;;;5099335;28;20206;-81
2023/07/12 08:36:36;;;;;;;67.43;3.03;;;23.10;1.00;;;;;;5098977;28;20202;-80
2023/07/12 08:39:02;;;;;;;70.07;3.37;;;23.20;1.00;;;;;;5080834;28;20674;-80
2023/07/12 08:41:29;;;;;;;67.80;2.63;;;23.20;1.00;;;;;;5099808;28;20634;-80
2023/07/12 08:43:56;;;;;;;69.73;3.00;;;23.10;1.00;;;;;;5081501;28;20167;-83
2023/07/12 08:46:25;;;;;;;68.03;3.03;;;23.00;1.00;;;;;;5099089;28;20397;-80
2023/07/12 08:48:58;;;;;;;67.10;3.40;;;23.00;1.00;;;;;;5099213;28;20451;-81
2023/07/12 08:51:28;;;;;;;67.10;2.97;;;22.90;1.00;;;;;;5098984;28;20428;-81
2023/07/12 08:53:55;;;;;;;67.60;2.93;;;22.90;1.00;;;;;;5098847;28;20413;-81
2023/07/12 08:56:21;;;;;;;66.77;3.27;;;22.90;1.00;;;;;;5098627;28;20942;-79
2023/07/12 08:58:50;;;;;;;73.00;3.30;;;22.90;1.00;;;;;;5097333;28;20540;-80
2023/07/12 09:01:45;;;;;;;70.30;4.33;;;22.80;1.00;;;;;;5079284;28;20402;-79
2023/07/12 09:04:31;;;;;;;69.87;3.60;;;22.90;1.00;;;;;;5097992;28;20756;-80
2023/07/12 09:07:03;;;;;;;66.80;2.80;;;22.90;1.00;;;;;;5098252;28;20374;-81
2023/07/12 09:09:33;;;;;;;65.40;3.10;;;22.90;1.00;;;;;;5097542;28;20504;-79
2023/07/12 09:12:01;;;;;;;66.40;3.43;;;23.00;1.00;;;;;;5078787;28;20401;-80
2023/07/12 09:14:27;;;;;;;67.17;3.10;;;23.10;1.00;;;;;;5097848;28;20908;-79
2023/07/12 09:16:58;;;;;;;66.87;3.30;;;23.30;1.00;;;;;;5098449;28;20877;-80
2023/07/12 09:19:27;;;;;;;71.73;3.00;;;23.50;1.00;;;;;;5097408;28;20971;-80
2023/07/12 09:22:05;;;;;;;69.00;2.60;;;23.50;1.00;;;;;;5096696;28;20916;-80
2023/07/12 09:24:31;;;;;;;66.33;2.33;;;23.40;1.00;;;;;;5097056;28;20382;-79
2023/07/12 09:27:16;;;;;;;79.43;2.73;;;23.50;1.00;;;;;;5096573;28;20396;-79
2023/07/12 09:29:41;;;;;;;69.70;2.83;;;23.60;1.00;;;;;;5096996;28;20182;-80
2023/07/12 09:32:15;;;;;;;65.77;2.23;;;23.50;1.00;;;;;;5078217;28;20412;-80
2023/07/12 09:34:41;;;;;;;67.90;2.70;;;23.40;1.00;;;;;;5078617;28;20148;-79
2023/07/12 09:37:17;;;;;;;68.27;2.50;;;23.40;1.00;;;;;;5097173;28;20390;-79
2023/07/12 09:39:53;;;;;;;68.83;2.60;;;23.50;1.00;;;;;;5078489;28;20823;-80
2023/07/12 09:42:18;;;;;;;67.10;2.50;;;23.60;1.00;;;;;;5097290;28;20409;-79
2023/07/12 09:44:46;;;;;;;66.73;2.37;;;23.70;1.00;;;;;;5097245;28;20466;-80
2023/07/12 09:47:40;;;;;;;67.00;2.70;;;23.80;1.00;;;;;;5078476;28;20172;-80
2023/07/12 09:50:18;;;;;;;67.07;2.67;;;23.90;1.00;;;;;;5096867;28;20472;-80
2023/07/12 09:52:47;;;;;;;70.20;2.40;;;24.00;1.00;;;;;;5096841;28;20485;-80
2023/07/12 09:55:44;;;;;;;67.60;2.20;;;24.10;1.00;;;;;;5096337;28;20413;-80
2023/07/12 09:58:35;;;;;;;66.57;2.33;;;24.40;1.00;;;;;;5096516;28;20453;-80
2023/07/12 10:01:40;;;;;;;67.60;2.43;;;24.70;1.00;;;;;;5096488;28;20370;-80
2023/07/12 10:04:34;;;;;;;69.67;2.30;;;24.60;1.00;;;;;;5096624;28;20417;-80
2023/07/12 10:07:09;;;;;;;69.63;2.20;;;24.90;1.00;;;;;;5096061;28;20769;-80
2023/07/12 10:09:43;;;;;;;68.30;2.60;;;25.20;1.00;;;;;;5096438;28;20956;-80
2023/07/12 10:12:32;;;;;;;69.03;2.40;;;25.20;1.00;;;;;;5078664;28;20939;-80
2023/07/12 10:14:58;;;;;;;67.70;2.43;;;25.10;1.00;;;;;;5095706;28;20425;-79
2023/07/12 10:17:34;;;;;;;67.30;2.30;;;25.00;1.00;;;;;;5096035;28;20485;-80
2023/07/12 10:20:01;;;;;;;69.70;2.63;;;25.00;1.00;;;;;;5096781;28;20459;-79
2023/07/12 10:22:35;;;;;;;68.83;2.30;;;25.00;1.00;;;;;;5078936;28;20411;-80
2023/07/12 10:25:24;;;;;;;70.10;2.97;;;25.00;1.00;;;;;;5077518;28;20384;-80
2023/07/12 10:28:00;;;;;;;69.90;2.30;;;25.20;1.00;;;;;;5077565;28;20437;-80
2023/07/12 10:30:28;;;;;;;68.83;2.80;;;25.50;1.00;;;;;;5096003;28;20378;-80
2023/07/12 10:33:19;;;;;;;69.57;2.40;;;25.80;1.00;;;;;;5095798;28;20373;-81
2023/07/12 10:35:49;;;;;;;68.93;2.30;;;26.20;1.00;;;;;;5096278;28;20376;-79
2023/07/12 10:38:17;;;;;;;68.37;2.50;;;26.60;1.00;;;;;;5096642;28;20490;-80
2023/07/12 10:40:55;;;;;;;68.10;2.80;;;26.80;1.00;;;;;;5096377;28;20405;-80
2023/07/12 10:43:31;;;;;;;67.97;3.10;;;26.80;1.00;;;;;;5096175;28;20374;-80
2023/07/12 10:46:04;;;;;;;69.80;3.27;;;26.70;1.00;;;;;;5095915;28;20381;-79
2023/07/12 10:48:31;;;;;;;67.70;3.00;;;26.50;1.00;;;;;;5077404;28;20502;-79
2023/07/12 10:51:17;;;;;;;71.00;3.63;;;26.30;1.00;;;;;;5078259;28;20421;-80
2023/07/12 10:53:52;;;;;;;71.83;3.03;;;26.00;1.00;;;;;;5095897;28;20393;-81
2023/07/12 10:56:38;;;;;;;68.77;2.50;;;25.70;1.00;;;;;;5077557;28;20444;-80
2023/07/12 10:59:24;;;;;;;69.57;3.13;;;25.90;1.00;;;;;;5096166;28;20475;-80
2023/07/12 11:01:52;;;;;;;70.17;4.00;;;26.00;1.00;;;;;;5096621;28;20449;-80
2023/07/12 11:04:27;;;;;;;67.20;3.40;;;26.10;1.00;;;;;;5078776;28;20409;-80
2023/07/12 11:07:10;;;;;;;68.97;3.43;;;26.50;1.00;;;;;;5096746;28;20373;-80
2023/07/12 11:09:59;;;;;;;69.70;3.73;;;26.80;1.00;;;;;;5096334;28;20463;-80
2023/07/12 11:12:30;;;;;;;66.83;3.50;;;27.30;1.00;;;;;;5065958;28;20880;-80
2023/07/12 11:15:21;;;;;;;68.90;4.30;;;27.70;1.00;;;;;;5096460;28;20425;-79
2023/07/12 11:18:09;;;;;;;68.13;4.50;;;27.50;1.00;;;;;;5096206;28;20590;-80
2023/07/12 11:21:02;;;;;;;70.33;3.90;;;27.60;1.00;;;;;;5095914;28;20475;-80
2023/07/12 11:23:47;;;;;;;81.67;4.40;;;27.70;1.00;;;;;;5095992;28;20417;-80
2023/07/12 11:26:28;;;;;;;67.70;3.90;;;28.00;1.00;;;;;;5096505;28;20466;-80
2023/07/12 11:29:13;;;;;;;70.90;5.73;;;27.90;1.00;;;;;;5095928;28;20428;-80
2023/07/12 11:31:41;;;;;;;68.30;3.70;;;28.00;1.00;;;;;;5095852;28;20382;-80
2023/07/12 11:34:16;;;;;;;72.87;4.10;;;27.70;1.00;;;;;;5096319;28;20405;-79
2023/07/12 11:36:48;;;;;;;69.60;4.27;;;27.40;1.00;;;;;;5098987;28;20472;-79
2023/07/12 11:39:18;;;;;;;68.70;3.43;;;27.20;1.00;;;;;;5080503;28;20459;-79
2023/07/12 11:42:34;;;;;;;72.60;4.27;;;26.80;1.00;;;;;;5081536;28;20401;-80
2023/07/12 11:45:08;;;;;;;73.57;4.50;;;26.50;1.00;;;;;;5073242;28;20470;-80
2023/07/12 11:47:34;;;;;;;71.40;3.90;;;26.30;1.00;;;;;;5099824;28;20377;-80
2023/07/12 11:50:01;;;;;;;68.40;3.83;;;26.60;1.00;;;;;;5081606;28;20431;-80
2023/07/12 11:52:27;;;;;;;68.30;4.13;;;26.90;1.00;;;;;;5099941;28;20245;-80
2023/07/12 11:54:54;;;;;;;67.60;4.23;;;27.20;1.00;;;;;;5081864;28;20484;-79
2023/07/12 11:57:20;;;;;;;68.17;4.13;;;27.20;1.00;;;;;;5099778;28;20394;-81
2023/07/12 11:59:48;;;;;;;69.67;3.70;;;27.20;1.00;;;;;;5099578;28;20470;-80
2023/07/12 12:02:20;;;;;;;68.80;4.80;;;27.30;1.00;;;;;;5099388;28;20900;-80
2023/07/12 12:04:50;;;;;;;73.90;4.17;;;27.60;1.00;;;;;;5099575;28;20401;-79
2023/07/12 12:07:37;;;;;;;78.28;20.10;;;27.80;1.00;;;;;;5098336;28;20957;-80
2023/07/12 12:10:04;;;;;;;68.60;7.03;;;28.00;1.00;;;;;;5098451;28;20147;-80
2023/07/12 12:12:32;;;;;;;69.87;6.77;;;28.20;1.00;;;;;;5098983;28;20908;-80
2023/07/12 12:15:00;;;;;;;69.43;5.50;;;28.50;1.00;;;;;;5098682;28;20402;-80
2023/07/12 12:17:31;;;;;;;67.77;5.80;;;28.50;1.00;;;;;;5099436;28;20401;-80
2023/07/12 12:20:09;;;;;;;68.00;5.27;;;28.10;1.00;;;;;;5081028;28;20486;-80
2023/07/12 12:22:39;;;;;;;67.80;5.47;;;28.10;1.00;;;;;;5098855;28;20405;-80
2023/07/12 12:25:06;;;;;;;70.27;5.67;;;28.20;1.00;;;;;;5098632;28;20394;-80
2023/07/12 12:27:37;;;;;;;70.67;5.97;;;28.40;1.00;;;;;;5098975;28;20397;-80
2023/07/12 12:30:22;;;;;;;71.40;5.77;;;28.30;1.00;;;;;;5098912;28;20783;-79
2023/07/12 12:33:21;;;;;;;67.80;4.50;;;28.10;1.00;;;;;;5098481;28;20393;-79
2023/07/12 12:35:52;;;;;;;67.50;3.87;;;27.50;1.00;;;;;;5098543;28;20487;-79
2023/07/12 12:38:22;;;;;;;68.03;4.20;;;27.50;1.00;;;;;;5098565;28;20960;-79
2023/07/12 12:40:56;;;;;;;68.87;3.87;;;27.50;1.00;;;;;;5098866;28;20393;-79
2023/07/12 12:43:23;;;;;;;71.80;5.00;;;27.70;1.00;;;;;;5098996;28;20465;-79
2023/07/12 12:45:49;;;;;;;69.03;5.10;;;28.20;1.00;;;;;;5080003;28;20405;-80
2023/07/12 12:48:15;;;;;;;69.87;5.50;;;28.40;1.00;;;;;;5097184;28;20784;-79
2023/07/12 12:50:40;;;;;;;69.20;5.50;;;28.60;1.00;;;;;;5098094;28;20168;-79
2023/07/12 12:53:12;;;;;;;67.90;4.17;;;28.60;1.00;;;;;;5099021;28;20171;-79
2023/07/12 12:55:38;;;;;;;68.10;4.40;;;28.80;1.00;;;;;;5098137;28;20651;-80
2023/07/12 12:58:09;;;;;;;70.37;3.97;;;28.50;1.00;;;;;;5098258;28;20461;-80